Time;durP1;ratioP1;P1;durP2;ratioP2;P2;SDS_P1;SDS_P2;PMS_P1;PMS_P2;Temp;Humidity;BMP_temperature;BMP_pressure;BME280_temperature;BME280_humidity;BME280_pressure;Samples;Min_cycle;Max_cycle;Signal;HPM_P1;HPM_P2
2022/07/16 00:02:53;;;;;;;3.80;1.73;;;;;;;;;;5033115;28;20032;-37
2022/07/16 00:05:18;;;;;;;8.48;2.25;;;;;;;;;;5033261;28;20025;-37
2022/07/16 00:07:43;;;;;;;2.45;1.45;;;;;;;;;;5033036;28;20116;-37
2022/07/16 00:10:09;;;;;;;1.92;1.40;;;;;;;;;;5033260;28;20018;-37
2022/07/16 00:12:34;;;;;;;2.35;1.30;;;;;;;;;;5033222;28;20033;-39
2022/07/16 00:15:00;;;;;;;3.03;1.60;;;;;;;;;;5032845;28;20029;-37
2022/07/16 00:17:25;;;;;;;2.65;1.30;;;;;;;;;;5032669;28;20021;-37
2022/07/16 00:19:50;;;;;;;3.92;1.35;;;;;;;;;;5032896;28;20037;-38
2022/07/16 00:22:16;;;;;;;17.17;1.67;;;;;;;;;;5032711;28;20370;-37
2022/07/16 00:24:41;;;;;;;4.55;1.60;;;;;;;;;;5033009;28;20044;-37
2022/07/16 00:27:06;;;;;;;3.30;1.45;;;;;;;;;;5031689;28;20044;-37
2022/07/16 00:29:32;;;;;;;4.20;1.20;;;;;;;;;;5033027;28;20071;-37
2022/07/16 00:31:57;;;;;;;1.92;1.30;;;;;;;;;;5032797;28;20013;-37
2022/07/16 00:34:23;;;;;;;2.97;1.60;;;;;;;;;;5032679;28;20026;-37
2022/07/16 00:36:48;;;;;;;2.55;1.25;;;;;;;;;;5032340;28;20040;-38
2022/07/16 00:39:14;;;;;;;3.78;1.45;;;;;;;;;;5032334;28;20385;-38
2022/07/16 00:41:40;;;;;;;3.65;1.40;;;;;;;;;;5032504;28;20397;-37
2022/07/16 00:44:09;;;;;;;1.65;1.30;;;;;;;;;;5032008;28;20536;-37
2022/07/16 00:46:34;;;;;;;4.38;1.33;;;;;;;;;;5032582;28;20040;-38
2022/07/16 00:49:00;;;;;;;3.97;1.80;;;;;;;;;;5031963;28;20041;-37
2022/07/16 00:51:26;;;;;;;2.55;1.58;;;;;;;;;;5032195;28;20368;-37
2022/07/16 00:53:52;;;;;;;3.67;1.33;;;;;;;;;;5031201;28;20018;-39
2022/07/16 00:56:18;;;;;;;2.47;1.25;;;;;;;;;;5030900;28;20033;-37
2022/07/16 00:58:45;;;;;;;5.07;1.60;;;;;;;;;;5032562;28;20025;-37
2022/07/16 01:01:10;;;;;;;4.25;1.20;;;;;;;;;;5031856;28;20029;-37
2022/07/16 01:03:36;;;;;;;5.80;1.40;;;;;;;;;;5030848;28;20076;-37
2022/07/16 01:06:02;;;;;;;2.90;1.63;;;;;;;;;;5031913;28;20029;-37
2022/07/16 01:08:28;;;;;;;4.07;1.48;;;;;;;;;;5032099;28;20038;-37
2022/07/16 01:10:53;;;;;;;2.22;1.40;;;;;;;;;;5030688;28;20021;-37
2022/07/16 01:13:19;;;;;;;4.35;1.40;;;;;;;;;;5031780;28;20477;-40
2022/07/16 01:15:44;;;;;;;2.08;1.25;;;;;;;;;;5031979;28;20064;-37
2022/07/16 01:18:09;;;;;;;5.53;1.70;;;;;;;;;;5031965;28;20018;-37
2022/07/16 01:20:35;;;;;;;3.75;2.08;;;;;;;;;;5031889;28;20017;-37
2022/07/16 01:23:01;;;;;;;4.28;1.45;;;;;;;;;;5031749;28;20079;-39
2022/07/16 01:25:27;;;;;;;2.85;1.38;;;;;;;;;;5031547;28;20377;-37
2022/07/16 01:27:52;;;;;;;2.10;1.45;;;;;;;;;;5031717;28;20061;-37
2022/07/16 01:30:18;;;;;;;3.78;1.20;;;;;;;;;;5030268;28;20049;-39
2022/07/16 01:32:43;;;;;;;2.15;1.20;;;;;;;;;;5032074;28;20033;-37
2022/07/16 01:35:08;;;;;;;3.00;1.52;;;;;;;;;;5030147;28;20021;-37
2022/07/16 01:37:34;;;;;;;2.08;1.40;;;;;;;;;;5031081;28;20381;-37
2022/07/16 01:39:59;;;;;;;2.42;1.55;;;;;;;;;;5031939;28;20075;-38
2022/07/16 01:42:25;;;;;;;2.20;1.30;;;;;;;;;;5031416;28;20021;-37
2022/07/16 01:44:50;;;;;;;4.13;1.33;;;;;;;;;;5031198;28;20041;-39
2022/07/16 01:47:15;;;;;;;3.67;1.90;;;;;;;;;;5031439;28;20037;-37
2022/07/16 01:49:41;;;;;;;8.00;2.88;;;;;;;;;;5031567;28;20080;-38
2022/07/16 01:52:07;;;;;;;2.53;1.58;;;;;;;;;;5031310;28;20044;-37
2022/07/16 01:54:33;;;;;;;3.08;1.25;;;;;;;;;;5030197;28;20122;-37
2022/07/16 01:56:58;;;;;;;6.05;1.58;;;;;;;;;;5031578;28;20100;-37
2022/07/16 01:59:24;;;;;;;2.83;1.40;;;;;;;;;;5031416;28;20017;-37
2022/07/16 02:01:49;;;;;;;2.33;1.50;;;;;;;;;;5031390;28;20029;-37
2022/07/16 02:04:14;;;;;;;4.07;1.40;;;;;;;;;;5030055;28;20022;-37
2022/07/16 02:06:40;;;;;;;2.63;1.23;;;;;;;;;;5031431;28;20242;-37
2022/07/16 02:09:05;;;;;;;7.32;1.77;;;;;;;;;;5031397;28;20099;-37
2022/07/16 02:11:30;;;;;;;2.55;1.60;;;;;;;;;;5031387;28;20010;-37
2022/07/16 02:13:56;;;;;;;2.53;1.35;;;;;;;;;;5031097;28;20025;-37
2022/07/16 02:16:21;;;;;;;3.03;1.38;;;;;;;;;;5030123;28;20021;-37
2022/07/16 02:18:46;;;;;;;2.35;1.35;;;;;;;;;;5031205;28;20024;-37
2022/07/16 02:21:12;;;;;;;1.80;1.33;;;;;;;;;;5031333;28;20017;-39
2022/07/16 02:23:37;;;;;;;2.17;1.40;;;;;;;;;;5031530;28;20065;-37
2022/07/16 02:26:02;;;;;;;3.03;1.58;;;;;;;;;;5030722;28;20587;-37
2022/07/16 02:28:28;;;;;;;5.90;1.33;;;;;;;;;;5031151;28;20040;-38
2022/07/16 02:30:53;;;;;;;2.85;1.50;;;;;;;;;;5031099;28;20354;-37
2022/07/16 02:33:19;;;;;;;5.55;1.65;;;;;;;;;;5029896;28;20088;-37
2022/07/16 02:35:44;;;;;;;8.95;2.67;;;;;;;;;;5031103;28;20116;-37
2022/07/16 02:38:10;;;;;;;7.88;2.03;;;;;;;;;;5030627;28;20123;-39
2022/07/16 02:40:36;;;;;;;14.32;1.75;;;;;;;;;;5031248;28;20104;-37
2022/07/16 02:43:03;;;;;;;7.40;1.88;;;;;;;;;;5029770;28;20512;-39
2022/07/16 02:45:28;;;;;;;6.32;1.65;;;;;;;;;;5030675;28;20072;-37
2022/07/16 02:47:54;;;;;;;4.72;1.90;;;;;;;;;;5029452;28;20037;-37
2022/07/16 02:50:19;;;;;;;8.38;2.10;;;;;;;;;;5032881;28;20026;-37
2022/07/16 02:52:45;;;;;;;7.25;1.80;;;;;;;;;;5034673;28;20029;-37
2022/07/16 02:55:10;;;;;;;6.55;1.60;;;;;;;;;;5033208;28;20036;-38
2022/07/16 02:57:36;;;;;;;11.50;2.53;;;;;;;;;;5034102;28;20100;-37
2022/07/16 03:00:02;;;;;;;7.82;1.88;;;;;;;;;;5034715;28;20029;-38
2022/07/16 03:02:27;;;;;;;6.47;1.77;;;;;;;;;;5034480;28;20022;-37
2022/07/16 03:04:52;;;;;;;9.27;1.80;;;;;;;;;;5032933;28;20036;-38
2022/07/16 03:07:18;;;;;;;22.35;2.28;;;;;;;;;;5033722;28;20047;-38
2022/07/16 03:09:43;;;;;;;19.92;2.80;;;;;;;;;;5033093;28;20017;-37
2022/07/16 03:12:08;;;;;;;13.48;2.45;;;;;;;;;;5034623;28;20457;-37
2022/07/16 03:14:34;;;;;;;26.42;3.47;;;;;;;;;;5033620;28;20018;-38
2022/07/16 03:16:59;;;;;;;50.55;11.45;;;;;;;;;;5032731;28;20025;-38
2022/07/16 03:19:24;;;;;;;60.40;12.48;;;;;;;;;;5033804;28;20021;-37
2022/07/16 03:21:49;;;;;;;33.05;4.90;;;;;;;;;;5033889;28;20032;-37
2022/07/16 03:24:16;;;;;;;19.27;4.47;;;;;;;;;;5034022;28;20023;-40
2022/07/16 03:26:41;;;;;;;24.05;3.28;;;;;;;;;;5033404;28;20064;-37
2022/07/16 03:29:07;;;;;;;17.73;2.90;;;;;;;;;;5033759;28;20061;-37
2022/07/16 03:31:32;;;;;;;10.15;2.88;;;;;;;;;;5033640;28;20032;-37
2022/07/16 03:33:57;;;;;;;11.13;2.92;;;;;;;;;;5033721;28;20022;-38
2022/07/16 03:36:23;;;;;;;6.32;2.47;;;;;;;;;;5033304;28;20026;-37
2022/07/16 03:39:07;;;;;;;8.20;2.05;;;;;;;;;;5033156;28;20029;-37
2022/07/16 03:41:33;;;;;;;8.25;2.05;;;;;;;;;;5033634;28;20100;-37
2022/07/16 03:43:59;;;;;;;4.28;1.70;;;;;;;;;;5033653;28;20029;-37
2022/07/16 03:46:24;;;;;;;4.63;1.80;;;;;;;;;;5033351;28;20492;-37
2022/07/16 03:48:49;;;;;;;4.00;1.77;;;;;;;;;;5032885;28;20045;-38
2022/07/16 03:51:15;;;;;;;7.57;1.67;;;;;;;;;;5033169;28;20017;-37
2022/07/16 03:53:40;;;;;;;10.50;2.30;;;;;;;;;;5033300;28;20028;-37
2022/07/16 03:56:05;;;;;;;18.35;2.72;;;;;;;;;;5033080;28;20100;-37
2022/07/16 03:58:31;;;;;;;22.92;4.10;;;;;;;;;;5033220;28;20096;-37
2022/07/16 04:00:57;;;;;;;17.05;2.58;;;;;;;;;;5032808;28;20021;-37
2022/07/16 04:03:23;;;;;;;13.45;1.95;;;;;;;;;;5031903;28;20178;-37
2022/07/16 04:05:48;;;;;;;10.48;2.00;;;;;;;;;;5032934;28;20025;-38
2022/07/16 04:08:13;;;;;;;8.65;1.73;;;;;;;;;;5031559;28;20086;-37
2022/07/16 04:10:39;;;;;;;8.32;1.80;;;;;;;;;;5032960;28;20021;-37
2022/07/16 04:13:04;;;;;;;5.70;1.35;;;;;;;;;;5032675;28;20018;-37
2022/07/16 04:15:30;;;;;;;8.57;2.28;;;;;;;;;;5032816;28;20033;-38
2022/07/16 04:17:55;;;;;;;8.82;1.70;;;;;;;;;;5032662;28;20021;-37
2022/07/16 04:20:20;;;;;;;11.68;1.95;;;;;;;;;;5032476;28;20027;-37
2022/07/16 04:22:46;;;;;;;14.13;2.40;;;;;;;;;;5032938;28;20025;-37
2022/07/16 04:25:14;;;;;;;12.63;2.08;;;;;;;;;;5032191;28;20025;-38
2022/07/16 04:27:40;;;;;;;3.88;1.80;;;;;;;;;;5032461;28;20567;-37
2022/07/16 04:30:06;;;;;;;8.18;2.10;;;;;;;;;;5032446;28;20100;-37
2022/07/16 04:32:31;;;;;;;14.50;2.50;;;;;;;;;;5032473;28;20052;-37
2022/07/16 04:34:56;;;;;;;8.55;2.63;;;;;;;;;;5032404;28;20471;-38
2022/07/16 04:37:21;;;;;;;7.35;2.33;;;;;;;;;;5032421;28;20033;-37
2022/07/16 04:39:47;;;;;;;7.50;2.67;;;;;;;;;;5032878;28;20025;-37
2022/07/16 04:42:12;;;;;;;14.73;2.30;;;;;;;;;;5032682;28;20029;-40
2022/07/16 04:44:37;;;;;;;6.27;2.00;;;;;;;;;;5032085;28;20049;-37
2022/07/16 04:47:03;;;;;;;7.88;2.70;;;;;;;;;;5030933;28;20261;-36
2022/07/16 04:49:28;;;;;;;7.05;2.47;;;;;;;;;;5030498;28;20082;-36
2022/07/16 04:51:53;;;;;;;8.73;2.08;;;;;;;;;;5032029;28;20009;-38
2022/07/16 04:54:18;;;;;;;10.82;2.38;;;;;;;;;;5032413;28;20025;-36
2022/07/16 04:56:44;;;;;;;10.02;2.17;;;;;;;;;;5032580;28;20111;-36
2022/07/16 04:59:09;;;;;;;9.43;3.50;;;;;;;;;;5032313;28;20032;-36
2022/07/16 05:01:34;;;;;;;15.88;1.73;;;;;;;;;;5031943;28;20018;-37
2022/07/16 05:04:00;;;;;;;6.07;2.65;;;;;;;;;;5032440;28;20021;-36
2022/07/16 05:06:25;;;;;;;6.95;2.67;;;;;;;;;;5031738;28;20028;-36
2022/07/16 05:08:51;;;;;;;17.00;6.05;;;;;;;;;;5030659;28;20034;-36
2022/07/16 05:11:16;;;;;;;8.23;2.33;;;;;;;;;;5031932;28;20423;-37
2022/07/16 05:13:41;;;;;;;4.95;1.85;;;;;;;;;;5031311;28;20056;-36
2022/07/16 05:16:07;;;;;;;8.93;1.75;;;;;;;;;;5030578;28;20473;-36
2022/07/16 05:18:32;;;;;;;8.00;3.05;;;;;;;;;;5031844;28;20048;-36
2022/07/16 05:20:57;;;;;;;4.70;1.77;;;;;;;;;;5031577;28;20018;-37
2022/07/16 05:23:23;;;;;;;4.22;1.80;;;;;;;;;;5031360;28;20429;-36
2022/07/16 05:25:48;;;;;;;3.30;1.83;;;;;;;;;;5031629;28;20048;-36
2022/07/16 05:28:13;;;;;;;7.50;2.20;;;;;;;;;;5030419;28;20116;-36
2022/07/16 05:30:39;;;;;;;3.72;1.60;;;;;;;;;;5032040;28;20029;-38
2022/07/16 05:33:04;;;;;;;3.35;1.83;;;;;;;;;;5031580;28;20013;-38
2022/07/16 05:35:29;;;;;;;6.75;1.85;;;;;;;;;;5030305;28;20096;-36
2022/07/16 05:37:55;;;;;;;9.20;1.98;;;;;;;;;;5031374;28;20032;-37
2022/07/16 05:40:20;;;;;;;3.17;1.40;;;;;;;;;;5031587;28;20029;-37
2022/07/16 05:42:45;;;;;;;6.10;1.60;;;;;;;;;;5030309;28;20029;-37
2022/07/16 05:45:11;;;;;;;3.85;1.63;;;;;;;;;;5031747;28;20049;-37
2022/07/16 05:47:36;;;;;;;8.90;1.63;;;;;;;;;;5031466;28;20033;-36
2022/07/16 05:50:05;;;;;;;7.72;1.58;;;;;;;;;;5031101;28;20552;-37
2022/07/16 05:52:31;;;;;;;5.07;1.60;;;;;;;;;;5031549;28;20041;-36
2022/07/16 05:54:56;;;;;;;5.13;1.83;;;;;;;;;;5031113;28;20021;-36
2022/07/16 05:57:22;;;;;;;3.05;1.70;;;;;;;;;;5031366;28;20021;-37
2022/07/16 05:59:47;;;;;;;7.93;1.60;;;;;;;;;;5031596;28;20524;-38
2022/07/16 06:02:12;;;;;;;5.53;1.70;;;;;;;;;;5031093;28;20044;-36
2022/07/16 06:04:38;;;;;;;4.35;1.70;;;;;;;;;;5031461;28;20321;-36
2022/07/16 06:07:03;;;;;;;3.93;1.87;;;;;;;;;;5031054;28;20021;-36
2022/07/16 06:09:28;;;;;;;5.13;1.98;;;;;;;;;;5029837;28;20071;-38
2022/07/16 06:11:54;;;;;;;8.10;1.60;;;;;;;;;;5031224;28;20357;-37
2022/07/16 06:14:19;;;;;;;5.03;1.52;;;;;;;;;;5031052;28;20088;-36
2022/07/16 06:16:44;;;;;;;2.75;1.48;;;;;;;;;;5030072;28;20056;-37
2022/07/16 06:19:10;;;;;;;2.75;1.38;;;;;;;;;;5031100;28;20052;-37
2022/07/16 06:21:35;;;;;;;15.75;4.07;;;;;;;;;;5029721;28;20105;-38
2022/07/16 06:24:01;;;;;;;2.40;1.40;;;;;;;;;;5032618;28;20029;-38
2022/07/16 06:26:26;;;;;;;4.03;1.95;;;;;;;;;;5034674;28;20030;-37
2022/07/16 06:28:51;;;;;;;5.65;1.52;;;;;;;;;;5035010;28;20080;-37
2022/07/16 06:31:17;;;;;;;5.93;1.40;;;;;;;;;;5035089;28;20117;-37
2022/07/16 06:33:42;;;;;;;4.88;1.83;;;;;;;;;;5035052;28;20243;-37
2022/07/16 06:36:07;;;;;;;5.93;1.70;;;;;;;;;;5034715;28;20397;-37
2022/07/16 06:38:33;;;;;;;2.80;1.50;;;;;;;;;;5033125;28;20063;-38
2022/07/16 06:40:58;;;;;;;5.55;1.80;;;;;;;;;;5035085;28;20465;-37
2022/07/16 06:43:24;;;;;;;3.08;1.10;;;;;;;;;;5034752;28;20013;-37
2022/07/16 06:45:50;;;;;;;5.18;1.55;;;;;;;;;;5034844;28;20049;-37
2022/07/16 06:48:15;;;;;;;3.50;1.45;;;;;;;;;;5034588;28;20420;-37
2022/07/16 06:50:41;;;;;;;4.83;1.50;;;;;;;;;;5032960;28;20036;-37
2022/07/16 06:53:06;;;;;;;1.92;1.58;;;;;;;;;;5034602;28;20305;-37
2022/07/16 06:55:31;;;;;;;3.27;1.40;;;;;;;;;;5034642;28;20018;-38
2022/07/16 06:57:57;;;;;;;3.50;1.33;;;;;;;;;;5033061;28;20357;-37
2022/07/16 07:00:22;;;;;;;2.53;1.35;;;;;;;;;;5034772;28;20099;-38
2022/07/16 07:02:47;;;;;;;4.72;1.70;;;;;;;;;;5034340;28;20100;-37
2022/07/16 07:05:13;;;;;;;2.22;1.50;;;;;;;;;;5033965;28;20028;-38
2022/07/16 07:07:38;;;;;;;3.85;1.40;;;;;;;;;;5034021;28;20033;-37
2022/07/16 07:10:04;;;;;;;4.35;1.17;;;;;;;;;;5034429;28;20108;-37
2022/07/16 07:12:29;;;;;;;5.55;1.48;;;;;;;;;;5032996;28;20021;-37
2022/07/16 07:14:54;;;;;;;5.18;1.30;;;;;;;;;;5033958;28;20487;-38
2022/07/16 07:17:20;;;;;;;4.38;1.13;;;;;;;;;;5034179;28;20504;-37
2022/07/16 07:19:45;;;;;;;2.67;1.20;;;;;;;;;;5034221;28;20014;-37
2022/07/16 07:22:11;;;;;;;2.37;1.30;;;;;;;;;;5033806;28;20092;-38
2022/07/16 07:24:36;;;;;;;3.80;1.33;;;;;;;;;;5033584;28;20304;-38
2022/07/16 07:27:01;;;;;;;2.42;1.30;;;;;;;;;;5033397;28;20017;-38
2022/07/16 07:29:27;;;;;;;1.50;1.40;;;;;;;;;;5033675;28;20036;-37
2022/07/16 07:31:52;;;;;;;1.42;1.10;;;;;;;;;;5033884;28;20131;-39
2022/07/16 07:34:17;;;;;;;5.80;1.45;;;;;;;;;;5033727;28;20083;-38
2022/07/16 07:36:43;;;;;;;3.22;1.15;;;;;;;;;;5032506;28;20025;-38
2022/07/16 07:39:08;;;;;;;3.07;1.60;;;;;;;;;;5033411;28;20029;-38
2022/07/16 07:41:33;;;;;;;3.17;1.23;;;;;;;;;;5033102;28;20247;-37
2022/07/16 07:43:59;;;;;;;2.75;1.05;;;;;;;;;;5031526;28;20519;-38
2022/07/16 07:46:24;;;;;;;3.78;1.27;;;;;;;;;;5031981;28;20436;-39
2022/07/16 07:48:50;;;;;;;1.63;1.00;;;;;;;;;;5031346;28;20045;-38
2022/07/16 07:51:15;;;;;;;3.35;1.20;;;;;;;;;;5031534;28;20022;-38
2022/07/16 07:53:40;;;;;;;1.65;1.13;;;;;;;;;;5031518;28;20075;-41
2022/07/16 07:56:06;;;;;;;4.57;1.40;;;;;;;;;;5031469;28;20021;-40
2022/07/16 07:58:31;;;;;;;1.90;1.10;;;;;;;;;;5031662;28;20025;-38
2022/07/16 08:00:56;;;;;;;2.38;1.40;;;;;;;;;;5032093;28;20515;-38
2022/07/16 08:03:22;;;;;;;3.78;1.17;;;;;;;;;;5033226;28;20032;-39
2022/07/16 08:05:48;;;;;;;1.33;1.20;;;;;;;;;;5033277;28;20060;-38
2022/07/16 08:08:13;;;;;;;1.27;0.90;;;;;;;;;;5032988;28;20275;-39
2022/07/16 08:10:38;;;;;;;2.63;1.30;;;;;;;;;;5033094;28;20029;-38
2022/07/16 08:13:04;;;;;;;4.70;1.42;;;;;;;;;;5033186;28;20031;-38
2022/07/16 08:15:29;;;;;;;1.92;1.33;;;;;;;;;;5033032;28;20384;-38
2022/07/16 08:17:55;;;;;;;1.85;1.10;;;;;;;;;;5033024;28;20045;-38
2022/07/16 08:20:20;;;;;;;2.63;1.02;;;;;;;;;;5032891;28;20025;-38
2022/07/16 08:22:45;;;;;;;2.35;1.15;;;;;;;;;;5031449;28;20025;-38
2022/07/16 08:27:55;;;;;;;2.40;1.17;;;;;;;;;;5032638;28;20175;-38
2022/07/16 08:30:20;;;;;;;2.13;1.07;;;;;;;;;;5031466;28;20676;-38
2022/07/16 08:32:46;;;;;;;3.85;1.50;;;;;;;;;;5032765;28;20032;-41
2022/07/16 08:35:11;;;;;;;5.80;1.20;;;;;;;;;;5030928;28;20057;-38
2022/07/16 08:37:37;;;;;;;3.25;1.10;;;;;;;;;;5032159;28;20021;-38
2022/07/16 08:40:04;;;;;;;2.45;1.42;;;;;;;;;;5031424;28;20018;-38
2022/07/16 08:42:31;;;;;;;5.68;1.55;;;;;;;;;;5032539;28;20095;-38
2022/07/16 08:44:57;;;;;;;1.67;1.13;;;;;;;;;;5030983;28;20079;-38
2022/07/16 08:47:22;;;;;;;3.05;1.30;;;;;;;;;;5030210;28;20021;-37
2022/07/16 08:49:49;;;;;;;1.75;1.17;;;;;;;;;;5031884;28;20048;-38
2022/07/16 08:52:14;;;;;;;4.47;1.17;;;;;;;;;;5032058;28;20021;-37
2022/07/16 08:54:40;;;;;;;4.90;1.42;;;;;;;;;;5032392;28;20384;-37
2022/07/16 08:57:06;;;;;;;3.72;1.50;;;;;;;;;;5032650;28;20445;-37
2022/07/16 08:59:31;;;;;;;1.85;1.00;;;;;;;;;;5030825;28;20432;-38
2022/07/16 09:01:57;;;;;;;3.83;1.27;;;;;;;;;;5031748;28;20018;-37
2022/07/16 09:04:22;;;;;;;1.95;1.50;;;;;;;;;;5032090;28;20377;-37
2022/07/16 09:06:47;;;;;;;2.30;1.00;;;;;;;;;;5030647;28;20488;-37
2022/07/16 09:09:13;;;;;;;10.80;1.85;;;;;;;;;;5030624;28;20126;-38
2022/07/16 09:11:39;;;;;;;1.80;1.33;;;;;;;;;;5030849;28;20017;-38
2022/07/16 09:14:12;;;;;;;3.90;1.40;;;;;;;;;;5030373;28;20509;-38
2022/07/16 09:16:48;;;;;;;17.80;2.65;;;;;;;;;;5032012;28;20036;-37
2022/07/16 09:19:14;;;;;;;2.75;1.38;;;;;;;;;;5031742;28;20021;-38
2022/07/16 09:21:58;;;;;;;3.95;1.48;;;;;;;;;;5031729;28;20021;-39
2022/07/16 09:24:44;;;;;;;4.35;1.45;;;;;;;;;;5031686;28;20024;-39
2022/07/16 09:27:17;;;;;;;6.22;1.25;;;;;;;;;;5029897;28;20031;-38
2022/07/16 09:29:51;;;;;;;2.22;1.40;;;;;;;;;;5030303;28;20028;-38
2022/07/16 09:32:27;;;;;;;1.95;1.23;;;;;;;;;;5032052;28;20033;-38
2022/07/16 09:35:10;;;;;;;1.75;1.30;;;;;;;;;;5032004;28;20516;-38
2022/07/16 09:37:52;;;;;;;4.60;1.58;;;;;;;;;;5031380;28;20030;-38
2022/07/16 09:40:34;;;;;;;12.73;1.60;;;;;;;;;;5030092;28;20053;-37
2022/07/16 09:43:00;;;;;;;2.58;1.25;;;;;;;;;;5031653;28;20056;-38
2022/07/16 09:45:25;;;;;;;6.75;1.80;;;;;;;;;;5031315;28;20045;-38
2022/07/16 09:47:51;;;;;;;1.70;1.58;;;;;;;;;;5030205;28;20034;-39
2022/07/16 09:50:16;;;;;;;5.18;1.58;;;;;;;;;;5031190;28;20028;-38
2022/07/16 09:52:42;;;;;;;2.47;1.25;;;;;;;;;;5031313;28;20109;-39
2022/07/16 09:55:08;;;;;;;4.63;1.43;;;;;;;;;;5030108;28;20057;-37
2022/07/16 09:57:33;;;;;;;3.55;1.50;;;;;;;;;;5031571;28;20025;-37
2022/07/16 09:59:59;;;;;;;1.67;1.30;;;;;;;;;;5034826;28;20384;-39
2022/07/16 10:02:25;;;;;;;3.20;1.38;;;;;;;;;;5035519;28;20029;-38
2022/07/16 10:04:50;;;;;;;4.70;1.70;;;;;;;;;;5035279;28;20040;-37
2022/07/16 10:07:18;;;;;;;3.95;1.42;;;;;;;;;;5035446;28;20055;-37
2022/07/16 10:09:44;;;;;;;6.35;1.63;;;;;;;;;;5035333;28;20037;-37
2022/07/16 10:12:14;;;;;;;9.55;1.33;;;;;;;;;;5035564;28;20052;-37
2022/07/16 10:14:41;;;;;;;3.17;1.55;;;;;;;;;;5033895;28;20032;-38
2022/07/16 10:17:14;;;;;;;3.25;1.40;;;;;;;;;;5035240;28;20025;-38
2022/07/16 10:19:40;;;;;;;3.92;1.30;;;;;;;;;;5035408;28;20051;-37
2022/07/16 10:22:13;;;;;;;2.87;1.63;;;;;;;;;;5033624;28;20524;-38
2022/07/16 10:24:44;;;;;;;2.38;1.45;;;;;;;;;;5034898;28;20748;-38
2022/07/16 10:27:28;;;;;;;3.42;1.50;;;;;;;;;;5034997;28;20017;-37
2022/07/16 10:30:10;;;;;;;8.52;1.77;;;;;;;;;;5034909;28;20635;-40
2022/07/16 10:32:54;;;;;;;1.75;1.27;;;;;;;;;;5034816;28;20485;-37
2022/07/16 10:35:29;;;;;;;5.68;1.85;;;;;;;;;;5034926;28;20108;-38
2022/07/16 10:38:04;;;;;;;5.63;1.65;;;;;;;;;;5033286;28;20029;-38
2022/07/16 10:40:30;;;;;;;6.28;1.63;;;;;;;;;;5034803;28;20498;-38
2022/07/16 10:43:14;;;;;;;3.00;1.50;;;;;;;;;;5033376;28;20025;-38
2022/07/16 10:46:01;;;;;;;5.05;1.90;;;;;;;;;;5034583;28;20049;-38
2022/07/16 10:48:47;;;;;;;3.72;1.27;;;;;;;;;;5034508;28;20084;-38
2022/07/16 10:51:16;;;;;;;2.20;1.30;;;;;;;;;;5034182;28;20100;-38
2022/07/16 10:54:01;;;;;;;2.95;1.35;;;;;;;;;;5033212;28;20032;-38
2022/07/16 10:56:32;;;;;;;3.38;1.20;;;;;;;;;;5034520;28;20096;-37
2022/07/16 10:58:58;;;;;;;3.47;1.45;;;;;;;;;;5034446;28;20025;-40
2022/07/16 11:01:23;;;;;;;3.50;1.58;;;;;;;;;;5032867;28;20072;-39
2022/07/16 11:03:52;;;;;;;3.53;1.80;;;;;;;;;;5032972;28;20037;-38
2022/07/16 11:06:17;;;;;;;;;;;;;;;;;;5034935;28;20021;-38
2022/07/16 11:08:43;;;;;;;5.67;1.63;;;;;;;;;;5034369;28;19913;-37
2022/07/16 11:11:08;;;;;;;3.97;1.58;;;;;;;;;;5031995;28;20029;-38
2022/07/16 11:13:33;;;;;;;2.50;1.50;;;;;;;;;;5033989;28;20105;-38
2022/07/16 11:16:09;;;;;;;3.90;1.60;;;;;;;;;;5034284;28;20329;-38
2022/07/16 11:18:40;;;;;;;4.05;1.40;;;;;;;;;;5033903;28;20738;-38
2022/07/16 11:21:06;;;;;;;3.08;1.67;;;;;;;;;;5034108;28;20021;-41
2022/07/16 11:23:52;;;;;;;3.60;1.48;;;;;;;;;;5033981;28;20476;-39
2022/07/16 11:26:19;;;;;;;3.65;1.35;;;;;;;;;;5031838;28;20075;-38
2022/07/16 11:28:51;;;;;;;2.35;1.60;;;;;;;;;;5033847;28;20030;-38
2022/07/16 11:31:22;;;;;;;2.60;1.60;;;;;;;;;;5033637;28;20464;-41
2022/07/16 11:33:48;;;;;;;3.88;1.70;;;;;;;;;;5034067;28;20474;-37
2022/07/16 11:36:13;;;;;;;4.15;2.05;;;;;;;;;;5033897;28;20104;-39
2022/07/16 11:38:39;;;;;;;2.38;1.40;;;;;;;;;;5032271;28;20472;-38
2022/07/16 11:41:04;;;;;;;5.60;1.80;;;;;;;;;;5033805;28;20026;-38
2022/07/16 11:43:29;;;;;;;10.63;1.67;;;;;;;;;;5032391;28;20028;-38
2022/07/16 11:45:55;;;;;;;3.15;1.58;;;;;;;;;;5033434;28;20278;-39
2022/07/16 11:48:20;;;;;;;5.95;1.60;;;;;;;;;;5033246;28;20046;-38
2022/07/16 11:50:46;;;;;;;7.53;2.00;;;;;;;;;;5032904;28;20017;-39
2022/07/16 11:53:12;;;;;;;1.83;1.40;;;;;;;;;;5033490;28;20028;-37
2022/07/16 11:55:41;;;;;;;5.07;1.60;;;;;;;;;;5033419;28;20018;-38
2022/07/16 11:58:06;;;;;;;7.22;1.90;;;;;;;;;;5033292;28;20108;-40
2022/07/16 12:00:45;;;;;;;3.47;1.65;;;;;;;;;;5032767;28;20124;-39
2022/07/16 12:03:10;;;;;;;2.77;1.67;;;;;;;;;;5033723;28;20033;-38
2022/07/16 12:05:36;;;;;;;1.92;1.65;;;;;;;;;;5033164;28;20029;-38
2022/07/16 12:08:03;;;;;;;3.55;1.40;;;;;;;;;;5033561;28;20128;-38
2022/07/16 12:10:28;;;;;;;3.63;1.50;;;;;;;;;;5033163;28;20066;-38
2022/07/16 12:13:03;;;;;;;3.00;1.88;;;;;;;;;;5032621;28;20441;-40
2022/07/16 12:15:29;;;;;;;9.73;1.90;;;;;;;;;;5033059;28;20025;-39
2022/07/16 12:17:54;;;;;;;4.00;2.08;;;;;;;;;;5033091;28;20018;-39
2022/07/16 12:20:25;;;;;;;6.55;1.70;;;;;;;;;;5033179;28;20389;-38
2022/07/16 12:22:50;;;;;;;3.03;1.67;;;;;;;;;;5032742;28;20535;-39
2022/07/16 12:25:23;;;;;;;3.92;1.52;;;;;;;;;;5032462;28;20067;-38
2022/07/16 12:27:53;;;;;;;4.07;1.42;;;;;;;;;;5032940;28;20033;-38
2022/07/16 12:30:19;;;;;;;2.75;1.60;;;;;;;;;;5033061;28;20143;-38
2022/07/16 12:32:48;;;;;;;6.97;1.98;;;;;;;;;;5032713;28;20060;-38
2022/07/16 12:35:32;;;;;;;3.45;1.77;;;;;;;;;;5032630;28;20033;-38
2022/07/16 12:37:57;;;;;;;3.05;1.80;;;;;;;;;;5032208;28;20056;-38
2022/07/16 12:40:23;;;;;;;2.60;1.73;;;;;;;;;;5032858;28;20049;-39
2022/07/16 12:42:48;;;;;;;5.77;2.07;;;;;;;;;;5032615;28;20052;-39
2022/07/16 12:45:13;;;;;;;2.87;1.60;;;;;;;;;;5030946;28;20297;-38
2022/07/16 12:47:38;;;;;;;2.23;1.57;;;;;;;;;;5032340;28;20239;-38
2022/07/16 12:50:04;;;;;;;2.10;1.40;;;;;;;;;;5031986;28;20013;-39
2022/07/16 12:52:30;;;;;;;5.50;1.42;;;;;;;;;;5032449;28;20026;-40
2022/07/16 13:00:22;;;;;;;4.32;2.08;;;;;;;;;;5032643;28;20028;-38
2022/07/16 13:02:50;;;;;;;4.82;2.80;;;;;;;;;;5031889;28;20021;-38
2022/07/16 13:05:15;;;;;;;8.02;2.38;;;;;;;;;;5031755;28;20049;-38
2022/07/16 13:07:40;;;;;;;3.58;1.70;;;;;;;;;;5032187;28;20098;-38
2022/07/16 13:10:06;;;;;;;3.08;1.92;;;;;;;;;;5032178;28;20021;-38
2022/07/16 13:12:31;;;;;;;5.30;2.38;;;;;;;;;;5031942;28;20017;-38
2022/07/16 13:14:56;;;;;;;4.13;1.65;;;;;;;;;;5031957;28;20488;-38
2022/07/16 13:17:22;;;;;;;2.13;1.83;;;;;;;;;;5032169;28;20032;-39
2022/07/16 13:19:47;;;;;;;2.80;1.52;;;;;;;;;;5031806;28;20029;-38
2022/07/16 13:22:12;;;;;;;3.03;2.03;;;;;;;;;;5031919;28;20109;-38
2022/07/16 13:24:38;;;;;;;6.17;2.00;;;;;;;;;;5031919;28;20029;-38
2022/07/16 13:27:03;;;;;;;5.07;2.20;;;;;;;;;;5031824;28;20239;-40
2022/07/16 13:29:28;;;;;;;5.43;2.10;;;;;;;;;;5031740;28;20095;-38
2022/07/16 13:31:54;;;;;;;7.93;2.30;;;;;;;;;;5031890;28;20029;-38
2022/07/16 13:34:19;;;;;;;3.05;2.10;;;;;;;;;;5030934;28;20021;-40
2022/07/16 13:36:44;;;;;;;4.07;2.07;;;;;;;;;;5029917;28;20493;-40
2022/07/16 13:39:10;;;;;;;5.25;1.67;;;;;;;;;;5031996;28;20104;-38
2022/07/16 13:41:35;;;;;;;3.63;1.50;;;;;;;;;;5031819;28;20465;-38
2022/07/16 13:44:01;;;;;;;7.43;1.95;;;;;;;;;;5031803;28;20028;-38
2022/07/16 13:46:26;;;;;;;4.85;1.83;;;;;;;;;;5030006;28;20049;-40
2022/07/16 13:48:51;;;;;;;5.05;1.85;;;;;;;;;;5031194;28;20033;-38
2022/07/16 13:51:16;;;;;;;3.10;1.60;;;;;;;;;;5031452;28;20024;-38
2022/07/16 13:53:42;;;;;;;2.78;1.67;;;;;;;;;;5031378;28;20309;-39
2022/07/16 13:56:07;;;;;;;3.88;1.65;;;;;;;;;;5031528;28;20080;-39
2022/07/16 13:58:32;;;;;;;1.70;1.50;;;;;;;;;;5031395;28;20028;-40
2022/07/16 14:00:59;;;;;;;3.70;1.70;;;;;;;;;;5031319;28;20304;-38
2022/07/16 14:03:26;;;;;;;3.95;2.00;;;;;;;;;;5031448;28;20021;-40
2022/07/16 14:05:56;;;;;;;2.53;1.60;;;;;;;;;;5029814;28;20022;-38
2022/07/16 14:08:21;;;;;;;8.48;2.47;;;;;;;;;;5031233;28;20029;-38
2022/07/16 14:10:47;;;;;;;3.67;1.80;;;;;;;;;;5030129;28;20018;-38
2022/07/16 14:13:12;;;;;;;4.20;2.13;;;;;;;;;;5031104;28;20048;-38
2022/07/16 14:15:38;;;;;;;2.45;1.80;;;;;;;;;;5031308;28;20028;-38
2022/07/16 14:18:06;;;;;;;6.50;1.80;;;;;;;;;;5031222;28;20049;-37
2022/07/16 14:20:32;;;;;;;3.03;1.83;;;;;;;;;;5031144;28;20117;-38
2022/07/16 14:22:57;;;;;;;5.70;2.30;;;;;;;;;;5030101;28;20283;-38
2022/07/16 14:25:23;;;;;;;3.15;1.88;;;;;;;;;;5031048;28;20017;-38
2022/07/16 14:27:48;;;;;;;6.20;1.75;;;;;;;;;;5031301;28;20071;-39
2022/07/16 14:30:14;;;;;;;4.65;1.67;;;;;;;;;;5031312;28;20033;-37
2022/07/16 14:32:39;;;;;;;9.02;2.20;;;;;;;;;;5031186;28;20018;-38
2022/07/16 14:35:09;;;;;;;5.68;1.80;;;;;;;;;;5029656;28;20358;-37
2022/07/16 14:37:37;;;;;;;3.17;1.38;;;;;;;;;;5030763;28;20021;-38
2022/07/16 14:40:03;;;;;;;;;;;;;;;;;;5031594;28;20021;-38
2022/07/16 14:42:28;;;;;;;4.43;2.10;;;;;;;;;;5031142;28;20305;-38
2022/07/16 14:44:53;;;;;;;4.30;1.92;;;;;;;;;;5031072;28;20049;-39
2022/07/16 14:47:18;;;;;;;4.23;2.10;;;;;;;;;;5034583;28;20094;-39
2022/07/16 14:49:44;;;;;;;3.43;2.03;;;;;;;;;;5034135;28;20029;-40